sensor_id;sensor_type;location;lat;lon;timestamp;P1;durP1;ratioP1;P2;durP2;ratioP2
39128;SDS011;24864;49.940;19.770;2023-03-03T00:01:02;203.85;;;89.68;;
39128;SDS011;24864;49.940;19.770;2023-03-03T00:03:31;221.52;;;96.28;;
39128;SDS011;24864;49.940;19.770;2023-03-03T00:06:00;221.50;;;95.72;;
39128;SDS011;24864;49.940;19.770;2023-03-03T00:08:30;215.98;;;94.38;;
39128;SDS011;24864;49.940;19.770;2023-03-03T00:10:58;224.65;;;98.32;;
39128;SDS011;24864;49.940;19.770;2023-03-03T00:13:29;236.70;;;104.50;;
39128;SDS011;24864;49.940;19.770;2023-03-03T00:16:09;235.82;;;102.30;;
39128;SDS011;24864;49.940;19.770;2023-03-03T00:18:44;227.20;;;100.18;;
39128;SDS011;24864;49.940;19.770;2023-03-03T00:21:21;237.02;;;102.78;;
39128;SDS011;24864;49.940;19.770;2023-03-03T00:24:01;237.45;;;102.63;;
39128;SDS011;24864;49.940;19.770;2023-03-03T00:26:39;226.05;;;98.85;;
39128;SDS011;24864;49.940;19.770;2023-03-03T00:29:28;228.95;;;103.45;;
39128;SDS011;24864;49.940;19.770;2023-03-03T00:31:59;241.43;;;104.18;;
39128;SDS011;24864;49.940;19.770;2023-03-03T00:34:55;230.73;;;99.90;;
39128;SDS011;24864;49.940;19.770;2023-03-03T00:37:28;233.63;;;103.97;;
39128;SDS011;24864;49.940;19.770;2023-03-03T00:40:00;247.18;;;106.13;;
39128;SDS011;24864;49.940;19.770;2023-03-03T00:42:57;238.77;;;104.63;;
39128;SDS011;24864;49.940;19.770;2023-03-03T00:45:31;236.75;;;104.90;;
39128;SDS011;24864;49.940;19.770;2023-03-03T00:48:08;236.55;;;102.28;;
39128;SDS011;24864;49.940;19.770;2023-03-03T00:50:48;231.02;;;97.28;;
39128;SDS011;24864;49.940;19.770;2023-03-03T00:53:17;230.73;;;99.53;;
39128;SDS011;24864;49.940;19.770;2023-03-03T00:55:48;226.25;;;96.72;;
39128;SDS011;24864;49.940;19.770;2023-03-03T00:58:17;227.70;;;100.80;;
39128;SDS011;24864;49.940;19.770;2023-03-03T01:00:47;234.40;;;102.15;;
39128;SDS011;24864;49.940;19.770;2023-03-03T01:03:16;226.35;;;103.13;;
39128;SDS011;24864;49.940;19.770;2023-03-03T01:05:45;236.52;;;103.18;;
39128;SDS011;24864;49.940;19.770;2023-03-03T01:08:14;215.35;;;97.78;;
39128;SDS011;24864;49.940;19.770;2023-03-03T01:10:43;229.18;;;100.50;;
39128;SDS011;24864;49.940;19.770;2023-03-03T01:13:18;219.65;;;98.68;;
39128;SDS011;24864;49.940;19.770;2023-03-03T01:15:48;200.98;;;81.10;;
39128;SDS011;24864;49.940;19.770;2023-03-03T01:18:16;249.60;;;107.28;;
39128;SDS011;24864;49.940;19.770;2023-03-03T01:20:44;242.77;;;110.38;;
39128;SDS011;24864;49.940;19.770;2023-03-03T01:23:12;260.67;;;119.20;;
39128;SDS011;24864;49.940;19.770;2023-03-03T01:25:41;257.85;;;114.13;;
39128;SDS011;24864;49.940;19.770;2023-03-03T01:28:09;245.77;;;110.57;;
39128;SDS011;24864;49.940;19.770;2023-03-03T01:30:39;233.98;;;103.40;;
39128;SDS011;24864;49.940;19.770;2023-03-03T01:33:07;235.82;;;100.97;;
39128;SDS011;24864;49.940;19.770;2023-03-03T01:35:36;228.52;;;98.75;;
39128;SDS011;24864;49.940;19.770;2023-03-03T01:38:06;231.98;;;101.18;;
39128;SDS011;24864;49.940;19.770;2023-03-03T01:40:34;215.85;;;93.75;;
39128;SDS011;24864;49.940;19.770;2023-03-03T01:43:02;218.73;;;95.20;;
39128;SDS011;24864;49.940;19.770;2023-03-03T01:45:31;224.95;;;96.38;;
39128;SDS011;24864;49.940;19.770;2023-03-03T01:48:40;219.85;;;95.55;;
39128;SDS011;24864;49.940;19.770;2023-03-03T01:51:11;220.68;;;97.90;;
39128;SDS011;24864;49.940;19.770;2023-03-03T01:53:45;229.07;;;98.13;;
39128;SDS011;24864;49.940;19.770;2023-03-03T01:56:16;228.63;;;99.05;;
39128;SDS011;24864;49.940;19.770;2023-03-03T01:58:45;232.88;;;100.93;;
39128;SDS011;24864;49.940;19.770;2023-03-03T02:01:19;217.90;;;95.85;;
39128;SDS011;24864;49.940;19.770;2023-03-03T02:03:49;230.13;;;104.25;;
39128;SDS011;24864;49.940;19.770;2023-03-03T02:06:20;229.10;;;98.60;;
39128;SDS011;24864;49.940;19.770;2023-03-03T02:08:51;224.27;;;97.50;;
39128;SDS011;24864;49.940;19.770;2023-03-03T02:11:23;225.63;;;95.88;;
39128;SDS011;24864;49.940;19.770;2023-03-03T02:13:52;224.70;;;98.25;;
39128;SDS011;24864;49.940;19.770;2023-03-03T02:16:22;228.35;;;99.38;;
39128;SDS011;24864;49.940;19.770;2023-03-03T02:18:50;229.55;;;97.15;;
39128;SDS011;24864;49.940;19.770;2023-03-03T02:21:19;240.85;;;99.20;;
39128;SDS011;24864;49.940;19.770;2023-03-03T02:23:49;225.10;;;96.10;;
39128;SDS011;24864;49.940;19.770;2023-03-03T02:26:22;327.38;;;122.10;;
39128;SDS011;24864;49.940;19.770;2023-03-03T02:28:51;225.13;;;96.45;;
39128;SDS011;24864;49.940;19.770;2023-03-03T02:31:20;222.15;;;92.18;;
39128;SDS011;24864;49.940;19.770;2023-03-03T02:33:51;210.93;;;90.18;;
39128;SDS011;24864;49.940;19.770;2023-03-03T02:36:21;204.68;;;88.32;;
39128;SDS011;24864;49.940;19.770;2023-03-03T02:38:50;207.05;;;86.65;;
39128;SDS011;24864;49.940;19.770;2023-03-03T02:41:27;221.98;;;95.72;;
39128;SDS011;24864;49.940;19.770;2023-03-03T02:43:58;231.98;;;101.35;;
39128;SDS011;24864;49.940;19.770;2023-03-03T02:46:28;235.15;;;105.63;;
39128;SDS011;24864;49.940;19.770;2023-03-03T02:48:59;240.02;;;104.38;;
39128;SDS011;24864;49.940;19.770;2023-03-03T02:51:28;247.27;;;108.00;;
39128;SDS011;24864;49.940;19.770;2023-03-03T02:53:56;236.23;;;106.53;;
39128;SDS011;24864;49.940;19.770;2023-03-03T02:56:24;244.77;;;108.63;;
39128;SDS011;24864;49.940;19.770;2023-03-03T02:58:54;256.02;;;110.78;;
39128;SDS011;24864;49.940;19.770;2023-03-03T03:01:22;259.00;;;112.05;;
39128;SDS011;24864;49.940;19.770;2023-03-03T03:03:51;247.68;;;105.03;;
39128;SDS011;24864;49.940;19.770;2023-03-03T03:06:19;219.90;;;90.63;;
39128;SDS011;24864;49.940;19.770;2023-03-03T03:08:47;237.73;;;105.53;;
39128;SDS011;24864;49.940;19.770;2023-03-03T03:11:15;262.17;;;112.45;;
39128;SDS011;24864;49.940;19.770;2023-03-03T03:13:44;255.48;;;110.57;;
39128;SDS011;24864;49.940;19.770;2023-03-03T03:16:13;270.88;;;115.90;;
39128;SDS011;24864;49.940;19.770;2023-03-03T03:18:41;272.58;;;118.15;;
39128;SDS011;24864;49.940;19.770;2023-03-03T03:21:10;261.77;;;115.20;;
39128;SDS011;24864;49.940;19.770;2023-03-03T03:23:39;259.15;;;112.72;;
39128;SDS011;24864;49.940;19.770;2023-03-03T03:26:07;269.38;;;116.22;;
39128;SDS011;24864;49.940;19.770;2023-03-03T03:28:36;259.88;;;113.85;;
39128;SDS011;24864;49.940;19.770;2023-03-03T03:31:06;251.05;;;112.38;;
39128;SDS011;24864;49.940;19.770;2023-03-03T03:33:35;242.35;;;107.75;;
39128;SDS011;24864;49.940;19.770;2023-03-03T03:36:04;264.48;;;113.75;;
39128;SDS011;24864;49.940;19.770;2023-03-03T03:38:33;271.83;;;115.93;;
39128;SDS011;24864;49.940;19.770;2023-03-03T03:41:03;274.23;;;112.43;;
39128;SDS011;24864;49.940;19.770;2023-03-03T03:43:31;260.98;;;114.57;;
39128;SDS011;24864;49.940;19.770;2023-03-03T03:46:00;247.30;;;108.85;;
39128;SDS011;24864;49.940;19.770;2023-03-03T03:48:29;248.57;;;108.03;;
39128;SDS011;24864;49.940;19.770;2023-03-03T03:50:57;229.75;;;105.78;;
39128;SDS011;24864;49.940;19.770;2023-03-03T03:53:25;222.32;;;99.40;;
39128;SDS011;24864;49.940;19.770;2023-03-03T03:55:53;230.77;;;100.13;;
39128;SDS011;24864;49.940;19.770;2023-03-03T03:58:21;230.75;;;101.40;;
39128;SDS011;24864;49.940;19.770;2023-03-03T04:00:50;230.30;;;100.22;;
39128;SDS011;24864;49.940;19.770;2023-03-03T04:03:17;232.27;;;101.10;;
39128;SDS011;24864;49.940;19.770;2023-03-03T04:05:47;219.45;;;90.82;;
39128;SDS011;24864;49.940;19.770;2023-03-03T04:08:16;225.65;;;86.55;;
39128;SDS011;24864;49.940;19.770;2023-03-03T04:10:44;213.55;;;86.70;;
39128;SDS011;24864;49.940;19.770;2023-03-03T04:13:12;275.13;;;113.75;;
39128;SDS011;24864;49.940;19.770;2023-03-03T04:15:40;230.85;;;100.57;;
39128;SDS011;24864;49.940;19.770;2023-03-03T04:18:09;225.27;;;95.85;;
39128;SDS011;24864;49.940;19.770;2023-03-03T04:20:38;248.95;;;110.13;;
39128;SDS011;24864;49.940;19.770;2023-03-03T04:23:07;250.27;;;109.75;;
39128;SDS011;24864;49.940;19.770;2023-03-03T04:25:36;249.85;;;110.97;;
39128;SDS011;24864;49.940;19.770;2023-03-03T04:28:04;250.77;;;110.25;;
39128;SDS011;24864;49.940;19.770;2023-03-03T04:30:33;254.00;;;109.13;;
39128;SDS011;24864;49.940;19.770;2023-03-03T04:33:01;236.00;;;105.82;;
39128;SDS011;24864;49.940;19.770;2023-03-03T04:35:30;252.98;;;107.47;;
39128;SDS011;24864;49.940;19.770;2023-03-03T04:37:58;240.90;;;108.05;;
39128;SDS011;24864;49.940;19.770;2023-03-03T04:40:28;256.70;;;112.03;;
39128;SDS011;24864;49.940;19.770;2023-03-03T04:42:56;258.58;;;112.07;;
39128;SDS011;24864;49.940;19.770;2023-03-03T04:45:24;220.05;;;95.07;;
39128;SDS011;24864;49.940;19.770;2023-03-03T04:47:52;208.60;;;88.40;;
39128;SDS011;24864;49.940;19.770;2023-03-03T04:50:21;221.07;;;97.47;;
39128;SDS011;24864;49.940;19.770;2023-03-03T04:52:49;242.48;;;104.93;;
39128;SDS011;24864;49.940;19.770;2023-03-03T04:55:17;247.50;;;104.65;;
39128;SDS011;24864;49.940;19.770;2023-03-03T04:57:46;270.52;;;115.13;;
39128;SDS011;24864;49.940;19.770;2023-03-03T05:00:15;259.15;;;113.40;;
39128;SDS011;24864;49.940;19.770;2023-03-03T05:02:46;265.80;;;110.85;;
39128;SDS011;24864;49.940;19.770;2023-03-03T05:05:14;247.77;;;110.45;;
39128;SDS011;24864;49.940;19.770;2023-03-03T05:07:43;233.65;;;106.07;;
39128;SDS011;24864;49.940;19.770;2023-03-03T05:10:11;235.70;;;103.82;;
39128;SDS011;24864;49.940;19.770;2023-03-03T05:12:39;232.13;;;100.30;;
39128;SDS011;24864;49.940;19.770;2023-03-03T05:15:10;251.27;;;110.10;;
39128;SDS011;24864;49.940;19.770;2023-03-03T05:17:38;228.05;;;98.85;;
39128;SDS011;24864;49.940;19.770;2023-03-03T05:20:07;220.27;;;95.18;;
39128;SDS011;24864;49.940;19.770;2023-03-03T05:22:36;209.63;;;93.35;;
39128;SDS011;24864;49.940;19.770;2023-03-03T05:25:05;210.20;;;95.13;;
39128;SDS011;24864;49.940;19.770;2023-03-03T05:27:35;218.55;;;96.57;;
39128;SDS011;24864;49.940;19.770;2023-03-03T05:30:03;214.23;;;94.38;;
39128;SDS011;24864;49.940;19.770;2023-03-03T05:32:33;215.05;;;93.60;;
39128;SDS011;24864;49.940;19.770;2023-03-03T05:35:02;222.77;;;97.07;;
39128;SDS011;24864;49.940;19.770;2023-03-03T05:37:30;223.38;;;95.57;;
39128;SDS011;24864;49.940;19.770;2023-03-03T05:39:58;218.82;;;98.20;;
39128;SDS011;24864;49.940;19.770;2023-03-03T05:42:27;201.30;;;87.65;;
39128;SDS011;24864;49.940;19.770;2023-03-03T05:44:55;225.13;;;95.68;;
39128;SDS011;24864;49.940;19.770;2023-03-03T05:47:23;215.65;;;92.82;;
39128;SDS011;24864;49.940;19.770;2023-03-03T05:49:53;210.73;;;90.30;;
39128;SDS011;24864;49.940;19.770;2023-03-03T05:52:21;207.07;;;91.03;;
39128;SDS011;24864;49.940;19.770;2023-03-03T05:54:50;221.43;;;98.60;;
39128;SDS011;24864;49.940;19.770;2023-03-03T05:57:18;237.20;;;101.50;;
39128;SDS011;24864;49.940;19.770;2023-03-03T05:59:46;209.75;;;94.10;;
39128;SDS011;24864;49.940;19.770;2023-03-03T06:02:14;222.15;;;98.30;;
39128;SDS011;24864;49.940;19.770;2023-03-03T06:04:43;226.65;;;100.45;;
39128;SDS011;24864;49.940;19.770;2023-03-03T06:07:12;229.02;;;99.97;;
39128;SDS011;24864;49.940;19.770;2023-03-03T06:09:41;259.35;;;117.68;;
39128;SDS011;24864;49.940;19.770;2023-03-03T06:12:09;252.65;;;113.90;;
39128;SDS011;24864;49.940;19.770;2023-03-03T06:14:37;298.40;;;129.07;;
39128;SDS011;24864;49.940;19.770;2023-03-03T06:17:05;285.73;;;127.10;;
39128;SDS011;24864;49.940;19.770;2023-03-03T06:19:33;302.23;;;130.13;;
39128;SDS011;24864;49.940;19.770;2023-03-03T06:22:02;289.48;;;128.45;;
39128;SDS011;24864;49.940;19.770;2023-03-03T06:24:31;288.85;;;127.63;;
39128;SDS011;24864;49.940;19.770;2023-03-03T06:27:00;242.00;;;111.30;;
39128;SDS011;24864;49.940;19.770;2023-03-03T06:29:28;272.98;;;119.75;;
39128;SDS011;24864;49.940;19.770;2023-03-03T06:31:56;266.80;;;114.43;;
39128;SDS011;24864;49.940;19.770;2023-03-03T06:34:25;262.02;;;116.30;;
39128;SDS011;24864;49.940;19.770;2023-03-03T06:36:53;246.07;;;109.70;;
39128;SDS011;24864;49.940;19.770;2023-03-03T06:39:22;250.75;;;110.88;;
39128;SDS011;24864;49.940;19.770;2023-03-03T06:41:52;249.18;;;110.00;;
39128;SDS011;24864;49.940;19.770;2023-03-03T06:44:20;242.48;;;107.50;;
39128;SDS011;24864;49.940;19.770;2023-03-03T06:46:48;243.52;;;106.25;;
39128;SDS011;24864;49.940;19.770;2023-03-03T06:49:16;242.00;;;106.22;;
39128;SDS011;24864;49.940;19.770;2023-03-03T06:51:44;244.90;;;108.43;;
39128;SDS011;24864;49.940;19.770;2023-03-03T06:54:13;258.95;;;113.53;;
39128;SDS011;24864;49.940;19.770;2023-03-03T06:56:43;263.73;;;114.13;;
39128;SDS011;24864;49.940;19.770;2023-03-03T06:59:13;264.90;;;113.28;;
39128;SDS011;24864;49.940;19.770;2023-03-03T07:01:43;266.67;;;113.50;;
39128;SDS011;24864;49.940;19.770;2023-03-03T07:04:16;255.15;;;112.40;;
39128;SDS011;24864;49.940;19.770;2023-03-03T07:06:52;260.83;;;111.00;;
39128;SDS011;24864;49.940;19.770;2023-03-03T07:09:21;257.75;;;112.40;;
39128;SDS011;24864;49.940;19.770;2023-03-03T07:11:51;261.52;;;118.60;;
39128;SDS011;24864;49.940;19.770;2023-03-03T07:14:20;255.73;;;113.07;;
39128;SDS011;24864;49.940;19.770;2023-03-03T07:16:50;244.93;;;108.28;;
39128;SDS011;24864;49.940;19.770;2023-03-03T07:19:22;266.52;;;119.65;;
39128;SDS011;24864;49.940;19.770;2023-03-03T07:21:56;258.02;;;116.38;;
39128;SDS011;24864;49.940;19.770;2023-03-03T07:24:25;236.95;;;111.60;;
39128;SDS011;24864;49.940;19.770;2023-03-03T07:26:55;223.18;;;105.82;;
39128;SDS011;24864;49.940;19.770;2023-03-03T07:29:28;235.25;;;107.70;;
39128;SDS011;24864;49.940;19.770;2023-03-03T07:31:57;236.73;;;105.07;;
39128;SDS011;24864;49.940;19.770;2023-03-03T07:34:26;215.75;;;99.00;;
39128;SDS011;24864;49.940;19.770;2023-03-03T07:36:58;209.70;;;96.25;;
39128;SDS011;24864;49.940;19.770;2023-03-03T07:39:30;167.88;;;77.90;;
39128;SDS011;24864;49.940;19.770;2023-03-03T07:42:20;205.70;;;96.13;;
39128;SDS011;24864;49.940;19.770;2023-03-03T07:44:51;206.70;;;94.55;;
39128;SDS011;24864;49.940;19.770;2023-03-03T07:49:50;204.85;;;91.15;;
39128;SDS011;24864;49.940;19.770;2023-03-03T07:52:24;218.93;;;91.25;;
39128;SDS011;24864;49.940;19.770;2023-03-03T07:54:54;212.57;;;91.72;;
39128;SDS011;24864;49.940;19.770;2023-03-03T07:57:25;225.52;;;99.72;;
39128;SDS011;24864;49.940;19.770;2023-03-03T07:59:58;217.18;;;101.75;;
39128;SDS011;24864;49.940;19.770;2023-03-03T08:02:32;222.45;;;102.55;;
39128;SDS011;24864;49.940;19.770;2023-03-03T08:05:21;222.13;;;104.03;;
39128;SDS011;24864;49.940;19.770;2023-03-03T08:08:13;227.05;;;104.03;;
39128;SDS011;24864;49.940;19.770;2023-03-03T08:10:46;229.52;;;105.97;;
39128;SDS011;24864;49.940;19.770;2023-03-03T08:13:17;231.00;;;109.32;;
39128;SDS011;24864;49.940;19.770;2023-03-03T08:15:47;232.00;;;103.90;;
39128;SDS011;24864;49.940;19.770;2023-03-03T08:18:21;227.32;;;106.47;;
39128;SDS011;24864;49.940;19.770;2023-03-03T08:20:51;225.05;;;98.82;;
39128;SDS011;24864;49.940;19.770;2023-03-03T08:23:20;221.02;;;101.95;;
39128;SDS011;24864;49.940;19.770;2023-03-03T08:25:49;220.75;;;101.57;;
39128;SDS011;24864;49.940;19.770;2023-03-03T08:28:18;218.57;;;99.05;;
39128;SDS011;24864;49.940;19.770;2023-03-03T08:30:49;220.57;;;102.75;;
39128;SDS011;24864;49.940;19.770;2023-03-03T08:33:34;217.20;;;99.72;;
39128;SDS011;24864;49.940;19.770;2023-03-03T08:36:03;217.77;;;103.20;;
39128;SDS011;24864;49.940;19.770;2023-03-03T08:38:33;213.15;;;103.25;;
39128;SDS011;24864;49.940;19.770;2023-03-03T08:41:01;225.90;;;105.93;;
39128;SDS011;24864;49.940;19.770;2023-03-03T08:43:29;226.98;;;107.65;;
39128;SDS011;24864;49.940;19.770;2023-03-03T08:46:00;231.55;;;111.97;;
39128;SDS011;24864;49.940;19.770;2023-03-03T08:48:31;233.38;;;111.43;;
39128;SDS011;24864;49.940;19.770;2023-03-03T08:51:00;248.20;;;115.05;;
39128;SDS011;24864;49.940;19.770;2023-03-03T08:53:28;247.15;;;117.55;;
39128;SDS011;24864;49.940;19.770;2023-03-03T08:55:58;261.20;;;119.07;;
39128;SDS011;24864;49.940;19.770;2023-03-03T08:58:27;276.27;;;131.40;;
39128;SDS011;24864;49.940;19.770;2023-03-03T09:01:02;264.30;;;130.57;;
39128;SDS011;24864;49.940;19.770;2023-03-03T09:03:31;266.52;;;129.50;;
39128;SDS011;24864;49.940;19.770;2023-03-03T09:05:59;262.70;;;126.80;;
39128;SDS011;24864;49.940;19.770;2023-03-03T09:08:28;266.10;;;128.07;;
39128;SDS011;24864;49.940;19.770;2023-03-03T09:10:56;284.55;;;138.48;;
39128;SDS011;24864;49.940;19.770;2023-03-03T09:13:24;300.73;;;151.18;;
39128;SDS011;24864;49.940;19.770;2023-03-03T09:15:56;313.05;;;146.07;;
39128;SDS011;24864;49.940;19.770;2023-03-03T09:18:28;319.52;;;157.15;;
39128;SDS011;24864;49.940;19.770;2023-03-03T09:20:58;311.05;;;157.32;;
39128;SDS011;24864;49.940;19.770;2023-03-03T09:23:30;346.10;;;168.38;;
39128;SDS011;24864;49.940;19.770;2023-03-03T09:29:01;340.42;;;168.93;;
39128;SDS011;24864;49.940;19.770;2023-03-03T09:31:43;342.90;;;171.10;;
39128;SDS011;24864;49.940;19.770;2023-03-03T09:34:17;336.42;;;166.00;;
39128;SDS011;24864;49.940;19.770;2023-03-03T09:36:47;336.08;;;172.13;;
39128;SDS011;24864;49.940;19.770;2023-03-03T09:39:17;332.00;;;163.93;;
39128;SDS011;24864;49.940;19.770;2023-03-03T09:44:52;325.88;;;162.60;;
39128;SDS011;24864;49.940;19.770;2023-03-03T09:47:38;334.67;;;166.65;;
39128;SDS011;24864;49.940;19.770;2023-03-03T09:50:23;322.98;;;153.52;;
39128;SDS011;24864;49.940;19.770;2023-03-03T09:53:01;314.60;;;155.07;;
39128;SDS011;24864;49.940;19.770;2023-03-03T09:55:40;298.58;;;147.30;;
39128;SDS011;24864;49.940;19.770;2023-03-03T09:58:18;294.90;;;138.75;;
39128;SDS011;24864;49.940;19.770;2023-03-03T10:00:59;276.60;;;130.57;;
39128;SDS011;24864;49.940;19.770;2023-03-03T10:03:49;281.00;;;136.27;;
39128;SDS011;24864;49.940;19.770;2023-03-03T10:06:35;287.60;;;134.10;;
39128;SDS011;24864;49.940;19.770;2023-03-03T10:09:08;273.88;;;127.90;;
39128;SDS011;24864;49.940;19.770;2023-03-03T10:11:57;263.05;;;118.95;;
39128;SDS011;24864;49.940;19.770;2023-03-03T10:14:34;268.65;;;117.85;;
39128;SDS011;24864;49.940;19.770;2023-03-03T10:17:21;270.92;;;122.43;;
39128;SDS011;24864;49.940;19.770;2023-03-03T10:20:00;286.10;;;127.22;;
39128;SDS011;24864;49.940;19.770;2023-03-03T10:22:40;299.70;;;130.98;;
39128;SDS011;24864;49.940;19.770;2023-03-03T10:25:18;312.48;;;136.30;;
39128;SDS011;24864;49.940;19.770;2023-03-03T10:27:55;281.58;;;124.90;;
39128;SDS011;24864;49.940;19.770;2023-03-03T10:30:32;296.95;;;131.88;;
39128;SDS011;24864;49.940;19.770;2023-03-03T10:33:29;308.50;;;133.43;;
39128;SDS011;24864;49.940;19.770;2023-03-03T10:36:03;307.45;;;126.22;;
39128;SDS011;24864;49.940;19.770;2023-03-03T10:38:48;293.25;;;125.90;;
39128;SDS011;24864;49.940;19.770;2023-03-03T10:41:33;323.05;;;130.43;;
39128;SDS011;24864;49.940;19.770;2023-03-03T10:44:28;312.30;;;130.55;;
39128;SDS011;24864;49.940;19.770;2023-03-03T10:47:10;293.30;;;127.45;;
39128;SDS011;24864;49.940;19.770;2023-03-03T10:49:52;314.80;;;128.27;;
39128;SDS011;24864;49.940;19.770;2023-03-03T10:52:28;335.88;;;139.73;;
39128;SDS011;24864;49.940;19.770;2023-03-03T11:00:37;335.88;;;139.15;;
39128;SDS011;24864;49.940;19.770;2023-03-03T11:03:25;326.15;;;135.73;;
39128;SDS011;24864;49.940;19.770;2023-03-03T11:06:04;355.50;;;148.32;;
39128;SDS011;24864;49.940;19.770;2023-03-03T11:08:33;341.30;;;143.93;;
39128;SDS011;24864;49.940;19.770;2023-03-03T11:11:09;345.67;;;143.95;;
39128;SDS011;24864;49.940;19.770;2023-03-03T11:13:43;348.65;;;140.75;;
39128;SDS011;24864;49.940;19.770;2023-03-03T11:16:23;335.08;;;142.45;;
39128;SDS011;24864;49.940;19.770;2023-03-03T11:19:11;344.52;;;144.93;;
39128;SDS011;24864;49.940;19.770;2023-03-03T11:21:50;363.20;;;147.75;;
39128;SDS011;24864;49.940;19.770;2023-03-03T11:24:26;346.38;;;140.27;;
39128;SDS011;24864;49.940;19.770;2023-03-03T11:27:10;351.13;;;147.57;;
39128;SDS011;24864;49.940;19.770;2023-03-03T11:29:52;372.30;;;148.23;;
39128;SDS011;24864;49.940;19.770;2023-03-03T11:32:32;344.08;;;139.70;;
39128;SDS011;24864;49.940;19.770;2023-03-03T11:35:18;353.10;;;139.18;;
39128;SDS011;24864;49.940;19.770;2023-03-03T11:37:53;326.13;;;128.68;;
39128;SDS011;24864;49.940;19.770;2023-03-03T11:40:26;317.13;;;122.68;;
39128;SDS011;24864;49.940;19.770;2023-03-03T11:43:00;326.00;;;120.78;;
39128;SDS011;24864;49.940;19.770;2023-03-03T11:45:33;308.77;;;114.50;;
39128;SDS011;24864;49.940;19.770;2023-03-03T11:48:07;327.92;;;123.95;;
39128;SDS011;24864;49.940;19.770;2023-03-03T11:50:42;329.33;;;123.13;;
39128;SDS011;24864;49.940;19.770;2023-03-03T11:53:21;324.20;;;120.32;;
39128;SDS011;24864;49.940;19.770;2023-03-03T11:55:54;316.63;;;121.13;;
39128;SDS011;24864;49.940;19.770;2023-03-03T11:58:26;301.55;;;117.72;;
39128;SDS011;24864;49.940;19.770;2023-03-03T12:00:56;294.13;;;112.78;;
39128;SDS011;24864;49.940;19.770;2023-03-03T12:03:30;285.73;;;109.43;;
39128;SDS011;24864;49.940;19.770;2023-03-03T12:06:07;286.48;;;113.03;;
39128;SDS011;24864;49.940;19.770;2023-03-03T12:08:43;287.42;;;107.35;;
39128;SDS011;24864;49.940;19.770;2023-03-03T12:11:36;278.60;;;104.03;;
39128;SDS011;24864;49.940;19.770;2023-03-03T12:14:11;266.27;;;99.30;;
39128;SDS011;24864;49.940;19.770;2023-03-03T12:16:46;269.58;;;102.78;;
39128;SDS011;24864;49.940;19.770;2023-03-03T12:19:24;255.13;;;100.43;;
39128;SDS011;24864;49.940;19.770;2023-03-03T12:22:00;250.02;;;92.82;;
39128;SDS011;24864;49.940;19.770;2023-03-03T12:24:45;189.98;;;73.20;;
39128;SDS011;24864;49.940;19.770;2023-03-03T12:27:27;232.70;;;82.25;;
39128;SDS011;24864;49.940;19.770;2023-03-03T12:30:00;228.60;;;87.55;;
39128;SDS011;24864;49.940;19.770;2023-03-03T12:32:44;230.63;;;84.82;;
39128;SDS011;24864;49.940;19.770;2023-03-03T12:35:24;230.52;;;75.55;;
39128;SDS011;24864;49.940;19.770;2023-03-03T12:37:56;226.13;;;82.53;;
39128;SDS011;24864;49.940;19.770;2023-03-03T12:40:30;233.43;;;78.45;;
39128;SDS011;24864;49.940;19.770;2023-03-03T12:43:06;229.43;;;84.00;;
39128;SDS011;24864;49.940;19.770;2023-03-03T12:45:48;208.05;;;76.35;;
39128;SDS011;24864;49.940;19.770;2023-03-03T12:48:23;221.70;;;76.38;;
39128;SDS011;24864;49.940;19.770;2023-03-03T12:50:58;217.85;;;81.05;;
39128;SDS011;24864;49.940;19.770;2023-03-03T12:53:32;212.77;;;72.75;;
39128;SDS011;24864;49.940;19.770;2023-03-03T12:56:07;224.55;;;73.13;;
39128;SDS011;24864;49.940;19.770;2023-03-03T12:58:39;202.95;;;72.43;;
39128;SDS011;24864;49.940;19.770;2023-03-03T13:01:20;213.25;;;70.47;;
39128;SDS011;24864;49.940;19.770;2023-03-03T13:03:56;179.47;;;62.87;;
39128;SDS011;24864;49.940;19.770;2023-03-03T13:06:31;207.70;;;65.75;;
39128;SDS011;24864;49.940;19.770;2023-03-03T13:11:52;186.05;;;64.75;;
39128;SDS011;24864;49.940;19.770;2023-03-03T13:14:28;201.60;;;68.65;;
39128;SDS011;24864;49.940;19.770;2023-03-03T13:17:11;186.63;;;59.95;;
39128;SDS011;24864;49.940;19.770;2023-03-03T13:22:14;193.48;;;60.95;;
39128;SDS011;24864;49.940;19.770;2023-03-03T13:27:26;176.88;;;53.78;;
39128;SDS011;24864;49.940;19.770;2023-03-03T13:29:58;191.40;;;60.70;;
39128;SDS011;24864;49.940;19.770;2023-03-03T13:32:31;204.13;;;62.28;;
39128;SDS011;24864;49.940;19.770;2023-03-03T13:35:05;182.18;;;56.05;;
39128;SDS011;24864;49.940;19.770;2023-03-03T13:37:35;192.27;;;62.35;;
39128;SDS011;24864;49.940;19.770;2023-03-03T13:40:09;196.82;;;60.88;;
39128;SDS011;24864;49.940;19.770;2023-03-03T13:42:44;179.55;;;59.25;;
39128;SDS011;24864;49.940;19.770;2023-03-03T13:45:16;163.27;;;51.97;;
39128;SDS011;24864;49.940;19.770;2023-03-03T13:47:55;190.75;;;60.97;;
39128;SDS011;24864;49.940;19.770;2023-03-03T13:50:29;170.10;;;56.92;;
39128;SDS011;24864;49.940;19.770;2023-03-03T13:53:05;191.70;;;58.65;;
39128;SDS011;24864;49.940;19.770;2023-03-03T13:56:01;165.48;;;55.13;;
39128;SDS011;24864;49.940;19.770;2023-03-03T13:58:36;162.65;;;56.25;;
39128;SDS011;24864;49.940;19.770;2023-03-03T14:01:08;180.70;;;54.05;;
39128;SDS011;24864;49.940;19.770;2023-03-03T14:03:48;177.10;;;57.55;;
39128;SDS011;24864;49.940;19.770;2023-03-03T14:06:25;144.95;;;47.20;;
39128;SDS011;24864;49.940;19.770;2023-03-03T14:09:05;158.70;;;49.60;;
39128;SDS011;24864;49.940;19.770;2023-03-03T14:11:40;169.43;;;54.53;;
39128;SDS011;24864;49.940;19.770;2023-03-03T14:14:13;160.23;;;51.25;;
39128;SDS011;24864;49.940;19.770;2023-03-03T14:16:50;181.98;;;53.10;;
39128;SDS011;24864;49.940;19.770;2023-03-03T14:19:23;169.30;;;55.30;;
39128;SDS011;24864;49.940;19.770;2023-03-03T14:21:58;167.05;;;52.92;;
39128;SDS011;24864;49.940;19.770;2023-03-03T14:24:31;161.25;;;52.08;;
39128;SDS011;24864;49.940;19.770;2023-03-03T14:27:22;155.82;;;48.75;;
39128;SDS011;24864;49.940;19.770;2023-03-03T14:29:51;166.00;;;51.72;;
39128;SDS011;24864;49.940;19.770;2023-03-03T14:32:20;170.80;;;56.25;;
39128;SDS011;24864;49.940;19.770;2023-03-03T14:35:14;163.50;;;51.05;;
39128;SDS011;24864;49.940;19.770;2023-03-03T14:37:45;156.60;;;51.33;;
39128;SDS011;24864;49.940;19.770;2023-03-03T14:40:15;149.90;;;48.17;;
39128;SDS011;24864;49.940;19.770;2023-03-03T14:42:46;146.70;;;46.42;;